x

Destruction Island, Wa (desw1) Weather Station

4:00 - Thu 23rd Mar 2017 All times are PDT. -7 hours from GMT.

  • Wind
    30mph, 33mph gusts
  • Ar Temp 48°f
  • Sea Pressure 1011.6mb
  • Destruction Island, Wa
  • Destruction Island, Wa

More Historic Weather Station data

Upgrade to MSW Pro to gain access to the past 30 days of data for over 8000 Wavebouys and Weather Stations around the globe.

Join Pro

Comparision Forecast

View Surf forecast
   
Qui 03/23 4:00 30 33 mph 1011.6mb 48f
3:00 24 25 mph 1012.3mb 47f
2:00 29 31 mph 1013.2mb 48f
1:00 32 33 mph 1013.8mb 48f
12:00 26 30 mph 1014.8mb 47f
11:00 29 32 mph 1015.2mb 46f
10:00 30 32 mph 1015.5mb 45f
9:00 29 32 mph 1015.8mb 44f
8:00 29 31 mph 1015.9mb 44f
7:00 23 24 mph 1016.3mb 43f
6:00 17 21 mph 1016.9mb 43f
5:00 24 26 mph 1016.5mb 44f
4:00 24 25 mph 1016.6mb 44f
3:00 24 25 mph 1016.8mb 44f
2:00 22 24 mph 1016.9mb 44f
1:00 20 22 mph 1017.2mb 44f
12:00 9 13 mph 1017.4mb 44f
Qua 03/22 11:00 21 22 mph 1016.9mb 47f
10:00 22 23 mph 1016.6mb 46f
9:00 18 21 mph 1016.3mb 47f
8:00 22 23 mph 1015.8mb 46f
7:00 20 22 mph 1015.4mb 47f
6:00 20 22 mph 1015.1mb 47f
5:00 18 20 mph 1014.5mb 47f
4:00 24 25 mph 1013.3mb 47f
3:00 29 31 mph 1011.7mb 46f
2:00 30 32 mph 1009.9mb 47f
1:00 29 31 mph 1008.9mb 47f
12:00 34 38 mph 1008.3mb 47f
11:00 29 32 mph 1007.7mb 47f
10:00 28 32 mph 1007mb 47f
9:00 29 32 mph 1006.7mb 48f
8:00 26 31 mph 1006mb 48f
7:00 24 29 mph 1005.6mb 49f
6:00 30 38 mph 1005.1mb 49f
5:00 32 43 mph 1004mb 49f
4:00 44 51 mph 1002.6mb 49f
3:00 18 23 mph 1002.7mb 49f
2:00 21 23 mph 1002.8mb 50f
1:00 20 22 mph 1003.7mb 49f
12:00 26 29 mph 1004.4mb 50f
Ter 03/21 11:00 33 36 mph 1004.2mb 51f
10:00 26 28 mph 1004mb 51f
9:00 23 25 mph 1004.1mb 51f
8:00 21 22 mph 1004.4mb 50f
7:00 24 26 mph 1004.7mb 50f
6:00 25 29 mph 1004.6mb 50f
5:00 26 30 mph 1004.9mb 50f
4:00 33 37 mph 1004.4mb 49f
3:00 36 39 mph 1004.5mb 50f
2:00 32 38 mph 1004.3mb 50f
1:00 36 40 mph 1004mb 52f
12:00 20 21 mph 1003.6mb 51f
11:00 30 33 mph 1003.1mb 52f
10:00 18 21 mph 1003.1mb 51f
9:00 25 29 mph 1002.8mb 51f
8:00 26 30 mph 1003.1mb 51f
7:00 28 30 mph 1003.6mb 51f
6:00 28 29 mph 1003.9mb 51f
5:00 21 25 mph 1004.2mb 50f
4:00 30 32 mph 1004.1mb 50f
3:00 13 14 mph 1004.8mb 50f
2:00 6 7 mph 1005.5mb 47f
1:00 6 7 mph 1006.3mb 47f
12:00 7 8 mph 1006.9mb 47f
Seg 03/20 11:00 10 11 mph 1007.6mb 47f
10:00 10
mph
1008.4mb 47f
9:00 8 9 mph 1009.3mb 47f
8:00 6
mph
1009.8mb 48f
7:00 3
mph
1010.1mb 48f
6:00 7
mph
1010.3mb 48f
5:00 7 8 mph 1010.8mb 48f
4:00 8
mph
1011.3mb 47f
3:00 1 2 mph 1011.9mb 46f
2:00 2 5 mph 1012.6mb 47f
1:00 6 7 mph 1012.7mb 49f
12:00 1 3 mph 1012.7mb 49f
11:00 7 8 mph 1013.2mb 46f
10:00 9 11 mph 1013.7mb 44f
9:00 10 11 mph 1013.8mb 41f
8:00 13 16 mph 1014.3mb 40f
7:00 13 14 mph 1014.7mb 40f
6:00 14 15 mph 1015.2mb 39f
5:00 15 16 mph 1016mb 40f
4:00 15 17 mph 1016.8mb 40f
3:00 14 17 mph 1017.7mb 40f
2:00 11 14 mph 1018.4mb 41f
1:00 15 17 mph 1018.9mb 41f